Terminal Aerodrome Forecast
Issued by NWS

Home | Current Version | Previous Version | Text Only | Print | Product List | Glossary On
Versions: 1 2 3 4 5 6 7 8 9 10 11 12 13 14 15 16 17 18 19 20
009
FTUS42 TJSJ 242327
TAFISX
TAF
TISX 242327Z 2500/2524 03004KT P6SM VCSH OVC045
     FM251400 16009KT P6SM VCSH SCT024 SCT040 BKN100
     FM252300 VRB03KT P6SM VCSH SCT020 SCT040 BKN080=

USA.gov is the U.S. government's official web portal to all federal, state and local government web resources and services.